createdAt,value
2022-09-10T00:00:42.429Z,13.07
2022-09-10T00:03:43.873Z,13.17
2022-09-10T00:06:45.410Z,13.25
2022-09-10T00:09:46.825Z,13.28
2022-09-10T00:12:48.245Z,13.30
2022-09-10T00:15:52.612Z,13.32
2022-09-10T00:18:54.113Z,13.34
2022-09-10T00:21:55.438Z,13.36
2022-09-10T00:24:56.842Z,13.35
2022-09-10T00:27:59.122Z,13.31
2022-09-10T00:31:03.486Z,13.25
2022-09-10T00:34:06.007Z,13.24
2022-09-10T00:37:07.447Z,13.21
2022-09-10T00:40:09.218Z,13.21
2022-09-10T00:43:14.559Z,13.23
2022-09-10T00:46:39.482Z,13.21
2022-09-10T00:49:46.646Z,13.18
2022-09-10T00:52:50.911Z,13.18
2022-09-10T00:55:56.005Z,13.16
2022-09-10T00:58:57.779Z,13.16
2022-09-10T01:01:59.198Z,13.12
2022-09-10T01:05:03.784Z,13.12
2022-09-10T01:08:05.523Z,13.10
2022-09-10T01:11:15.839Z,13.09
2022-09-10T01:14:47.910Z,13.09
2022-09-10T01:17:49.232Z,13.13
2022-09-10T01:21:13.016Z,13.14
2022-09-10T01:24:52.085Z,13.17
2022-09-10T01:27:58.081Z,13.23
2022-09-10T01:31:09.758Z,13.26
2022-09-10T01:34:29.300Z,13.29
2022-09-10T01:37:32.897Z,13.31
2022-09-10T01:40:35.674Z,13.32
2022-09-10T01:43:41.001Z,13.34
2022-09-10T01:46:54.840Z,13.36
2022-09-10T01:50:20.660Z,13.32
2022-09-10T01:53:54.016Z,13.30
2022-09-10T01:57:18.737Z,13.27
2022-09-10T02:00:20.898Z,13.33
2022-09-10T02:03:26.074Z,13.33
2022-09-10T02:06:31.017Z,13.31
2022-09-10T02:09:34.205Z,13.29
2022-09-10T02:12:36.234Z,13.30
2022-09-10T02:15:57.372Z,13.24
2022-09-10T02:19:02.263Z,13.20
2022-09-10T02:22:05.438Z,13.18
2022-09-10T02:25:07.725Z,13.18
2022-09-10T02:28:10.118Z,13.19
2022-09-10T02:31:12.259Z,13.19
2022-09-10T02:34:13.862Z,13.18
2022-09-10T02:37:15.298Z,13.19
2022-09-10T02:40:18.022Z,13.18
2022-09-10T02:43:19.860Z,12.94
2022-09-10T02:46:21.883Z,13.13
2022-09-10T02:49:23.271Z,13.10
2022-09-10T02:52:25.752Z,13.04
2022-09-10T02:55:28.140Z,12.99
2022-09-10T02:58:30.155Z,12.91
2022-09-10T03:01:32.584Z,12.88
2022-09-10T03:04:36.929Z,12.83
2022-09-10T03:07:38.476Z,12.83
2022-09-10T03:10:39.937Z,12.81
2022-09-10T03:13:41.640Z,12.82
2022-09-10T03:16:43.062Z,12.84
2022-09-10T03:19:44.436Z,12.83
2022-09-10T03:22:45.773Z,12.85
2022-09-10T03:25:50.120Z,12.87
2022-09-10T03:28:56.073Z,12.85
2022-09-10T03:32:00.136Z,12.84
2022-09-10T03:35:01.672Z,12.84
2022-09-10T03:38:03.021Z,12.84
2022-09-10T03:41:04.537Z,12.86
2022-09-10T03:44:06.335Z,12.84
2022-09-10T03:47:07.833Z,12.80
2022-09-10T03:50:09.641Z,12.80
2022-09-10T03:53:12.626Z,12.81
2022-09-10T03:56:14.101Z,12.80
2022-09-10T03:59:15.626Z,12.80
2022-09-10T04:02:18.293Z,12.79
2022-09-10T04:05:21.075Z,12.77
2022-09-10T04:08:24.095Z,12.74
2022-09-10T04:11:28.018Z,12.77
2022-09-10T04:14:31.140Z,12.75
2022-09-10T04:17:32.478Z,12.74
2022-09-10T04:20:34.047Z,12.75
2022-09-10T04:23:41.756Z,12.75
2022-09-10T04:26:44.234Z,12.71
2022-09-10T04:29:47.124Z,12.72
2022-09-10T04:32:50.178Z,12.72
2022-09-10T04:35:51.599Z,12.72
2022-09-10T04:38:53.125Z,12.67
2022-09-10T04:41:54.511Z,12.69
2022-09-10T04:44:56.391Z,12.69
2022-09-10T04:47:57.851Z,12.70
2022-09-10T04:51:15.631Z,12.69
2022-09-10T04:54:19.573Z,12.68
2022-09-10T04:57:21.059Z,12.72
2022-09-10T05:00:22.883Z,12.73
2022-09-10T05:03:24.645Z,12.69
2022-09-10T05:06:27.736Z,12.69
2022-09-10T05:09:30.768Z,12.69
2022-09-10T05:12:33.913Z,12.67
2022-09-10T05:15:39.589Z,12.64
2022-09-10T05:18:41.060Z,12.64
2022-09-10T05:21:44.696Z,12.66
2022-09-10T05:24:46.295Z,12.69
2022-09-10T05:27:47.825Z,12.79
2022-09-10T05:30:53.205Z,12.91
2022-09-10T05:33:57.769Z,12.97
2022-09-10T05:36:59.212Z,13.00
2022-09-10T05:40:00.790Z,13.02
2022-09-10T05:43:02.317Z,13.03
2022-09-10T05:46:04.915Z,13.02
2022-09-10T05:49:06.410Z,12.98
2022-09-10T05:52:07.782Z,12.95
2022-09-10T05:55:09.706Z,12.94
2022-09-10T05:58:11.243Z,12.98
2022-09-10T06:01:14.325Z,12.81
2022-09-10T06:04:18.221Z,12.97
2022-09-10T06:07:19.758Z,13.09
2022-09-10T06:10:21.168Z,13.15
2022-09-10T06:13:26.268Z,13.24
2022-09-10T06:16:27.763Z,13.33
2022-09-10T06:19:30.431Z,13.69
2022-09-10T06:22:33.354Z,13.97
2022-09-10T06:25:34.811Z,14.16
2022-09-10T06:28:37.346Z,14.43
2022-09-10T06:31:40.440Z,14.67
2022-09-10T06:34:42.535Z,14.50
2022-09-10T06:37:43.952Z,14.46
2022-09-10T06:40:57.967Z,14.57
2022-09-10T06:43:59.479Z,14.53
2022-09-10T06:47:55.502Z,14.47
2022-09-10T06:50:31.919Z,14.53
2022-09-10T06:53:34.924Z,14.50
2022-09-10T06:56:38.009Z,14.44
2022-09-10T06:59:39.908Z,14.61
2022-09-10T07:02:41.416Z,14.80
2022-09-10T07:05:46.656Z,14.95
2022-09-10T07:08:48.262Z,14.99
2022-09-10T07:11:49.616Z,15.10
2022-09-10T07:14:52.405Z,15.08
2022-09-10T07:17:54.756Z,15.08
2022-09-10T07:21:14.165Z,15.02
2022-09-10T07:24:20.033Z,15.15
2022-09-10T07:27:33.944Z,15.27
2022-09-10T07:30:35.367Z,15.35
2022-09-10T07:33:37.066Z,15.40
2022-09-10T07:36:38.645Z,15.47
2022-09-10T07:39:40.077Z,15.59
2022-09-10T07:42:41.550Z,15.85
2022-09-10T07:45:43.027Z,16.22
2022-09-10T07:48:45.182Z,18.19
2022-09-10T07:51:46.690Z,19.25
2022-09-10T07:54:48.826Z,19.24
2022-09-10T07:57:51.142Z,19.40
2022-09-10T08:00:52.898Z,21.03
2022-09-10T08:03:58.482Z,22.29
2022-09-10T08:07:01.031Z,22.78
2022-09-10T08:10:02.942Z,22.27
2022-09-10T08:13:04.470Z,22.70
2022-09-10T08:16:10.580Z,23.09
2022-09-10T08:19:13.435Z,22.40
2022-09-10T08:22:14.859Z,20.48
2022-09-10T08:25:23.008Z,19.62
2022-09-10T08:28:25.812Z,19.30
2022-09-10T08:31:28.137Z,19.04
2022-09-10T08:34:42.663Z,18.69
2022-09-10T08:37:46.049Z,18.60
2022-09-10T08:40:50.517Z,18.59
2022-09-10T08:44:09.624Z,18.57
2022-09-10T08:47:23.899Z,18.58
2022-09-10T08:50:37.492Z,18.46
2022-09-10T08:54:00.599Z,18.51
2022-09-10T08:57:02.458Z,18.33
2022-09-10T09:00:05.009Z,18.20
2022-09-10T09:03:29.276Z,17.99
2022-09-10T09:06:40.772Z,17.90
2022-09-10T09:09:42.804Z,17.88
2022-09-10T09:13:11.190Z,17.76
2022-09-10T09:16:34.097Z,17.67
2022-09-10T09:19:44.502Z,17.38
2022-09-10T09:22:52.957Z,17.56
2022-09-10T09:26:13.997Z,17.72
2022-09-10T09:29:35.903Z,17.61
2022-09-10T09:32:42.360Z,17.67
2022-09-10T09:35:50.467Z,17.74
2022-09-10T09:38:52.775Z,17.83
2022-09-10T09:42:15.395Z,18.24
2022-09-10T09:45:38.033Z,18.41
2022-09-10T09:48:41.030Z,18.91
2022-09-10T09:51:48.250Z,18.84
2022-09-10T09:55:13.900Z,18.74
2022-09-10T09:58:22.412Z,18.45
2022-09-10T10:01:26.243Z,18.67
2022-09-10T10:04:28.259Z,18.53
2022-09-10T10:07:32.465Z,18.32
2022-09-10T10:10:33.992Z,18.36
2022-09-10T10:13:38.372Z,18.42
2022-09-10T10:16:39.797Z,18.44
2022-09-10T10:19:41.189Z,18.48
2022-09-10T10:22:44.944Z,18.76
2022-09-10T10:25:46.352Z,19.04
2022-09-10T10:28:51.128Z,19.14
2022-09-10T10:31:53.516Z,18.78
2022-09-10T10:35:30.817Z,18.78
2022-09-10T10:38:41.109Z,18.55
2022-09-10T10:42:16.581Z,18.25
2022-09-10T10:45:35.829Z,18.37
2022-09-10T10:48:57.776Z,18.31
2022-09-10T10:52:26.486Z,18.33
2022-09-10T10:55:38.654Z,18.01
2022-09-10T10:59:04.897Z,17.96
2022-09-10T11:02:20.996Z,18.09
2022-09-10T11:05:33.449Z,18.21
2022-09-10T11:08:47.974Z,18.33
2022-09-10T11:11:53.402Z,18.31
2022-09-10T11:15:02.054Z,18.63
2022-09-10T11:18:17.946Z,18.99
2022-09-10T11:21:29.975Z,19.39
2022-09-10T11:24:42.619Z,19.75
2022-09-10T11:27:48.907Z,20.14
2022-09-10T11:30:57.817Z,20.47
2022-09-10T11:34:12.271Z,20.85
2022-09-10T11:37:34.697Z,21.22
2022-09-10T11:40:43.891Z,20.41
2022-09-10T11:44:11.340Z,19.44
2022-09-10T11:47:22.448Z,19.55
2022-09-10T11:50:36.593Z,19.59
2022-09-10T11:53:37.976Z,19.39
2022-09-10T11:57:08.382Z,19.42
2022-09-10T12:00:17.440Z,19.32
2022-09-10T12:03:40.852Z,19.17
2022-09-10T12:07:16.294Z,18.96
2022-09-10T12:10:36.721Z,18.94
2022-09-10T12:13:38.905Z,19.07
2022-09-10T12:16:55.708Z,19.04
2022-09-10T12:20:00.698Z,19.20
2022-09-10T12:23:02.612Z,19.21
2022-09-10T12:26:11.529Z,19.15
2022-09-10T12:29:27.058Z,18.88
2022-09-10T12:32:29.493Z,18.72
2022-09-10T12:35:30.779Z,18.74
2022-09-10T12:38:44.355Z,18.75
2022-09-10T12:41:45.641Z,18.75
2022-09-10T12:44:47.175Z,18.61
2022-09-10T12:47:49.106Z,18.52
2022-09-10T12:50:56.386Z,18.43
2022-09-10T12:54:26.429Z,18.12
2022-09-10T12:57:35.362Z,17.82
2022-09-10T13:00:42.407Z,17.75
2022-09-10T13:03:55.142Z,17.67
2022-09-10T13:07:00.530Z,17.59
2022-09-10T13:10:22.619Z,17.56
2022-09-10T13:13:39.100Z,17.49
2022-09-10T13:16:41.827Z,17.48
2022-09-10T13:19:43.155Z,17.47
2022-09-10T13:23:11.763Z,17.32
2022-09-10T13:26:28.302Z,17.50
2022-09-10T13:29:34.536Z,17.50
2022-09-10T13:32:44.103Z,17.56
2022-09-10T13:35:53.035Z,17.65
2022-09-10T13:39:13.768Z,17.72
2022-09-10T13:42:35.758Z,17.66
2022-09-10T13:45:46.482Z,17.65
2022-09-10T13:49:10.280Z,17.67
2022-09-10T13:52:16.235Z,17.83
2022-09-10T13:55:25.858Z,17.91
2022-09-10T13:58:34.797Z,17.97
2022-09-10T14:01:53.557Z,17.98
2022-09-10T14:04:55.001Z,18.17
2022-09-10T14:07:59.989Z,18.23
2022-09-10T14:11:10.443Z,18.21
2022-09-10T14:14:24.301Z,18.21
2022-09-10T14:17:30.869Z,18.44
2022-09-10T14:20:34.586Z,18.52
2022-09-10T14:23:36.032Z,18.58
2022-09-10T14:26:37.394Z,18.72
2022-09-10T14:29:38.725Z,18.76
2022-09-10T14:32:40.062Z,18.90
2022-09-10T14:35:44.237Z,18.93
2022-09-10T14:39:11.350Z,18.95
2022-09-10T14:42:38.841Z,19.02
2022-09-10T14:45:45.531Z,19.15
2022-09-10T14:48:58.920Z,19.14
2022-09-10T14:52:01.382Z,19.30
2022-09-10T14:55:02.703Z,19.50
2022-09-10T14:58:04.552Z,19.66
2022-09-10T15:01:06.169Z,19.64
2022-09-10T15:04:13.671Z,19.65
2022-09-10T15:07:15.029Z,19.60
2022-09-10T15:10:16.445Z,19.52
2022-09-10T15:13:17.813Z,19.41
2022-09-10T15:16:19.153Z,19.61
2022-09-10T15:19:21.723Z,19.68
2022-09-10T15:22:28.436Z,19.65
2022-09-10T15:25:39.168Z,19.59
2022-09-10T15:28:41.492Z,19.51
2022-09-10T15:31:42.868Z,19.56
2022-09-10T15:34:44.285Z,19.69
2022-09-10T15:37:45.709Z,20.01
2022-09-10T15:40:49.088Z,20.12
2022-09-10T15:43:50.461Z,20.11
2022-09-10T15:46:51.877Z,20.15
2022-09-10T15:49:53.256Z,20.13
2022-09-10T15:52:54.653Z,20.07
2022-09-10T15:55:59.605Z,19.88
2022-09-10T15:59:00.963Z,19.78
2022-09-10T16:02:02.449Z,19.71
2022-09-10T16:05:04.417Z,19.62
2022-09-10T16:08:05.745Z,19.64
2022-09-10T16:11:09.257Z,19.68
2022-09-10T16:14:13.933Z,19.58
2022-09-10T16:17:15.266Z,19.49
2022-09-10T16:20:16.709Z,19.48
2022-09-10T16:23:18.059Z,19.50
2022-09-10T16:26:23.654Z,19.31
2022-09-10T16:29:24.990Z,19.07
2022-09-10T16:32:26.319Z,18.87
2022-09-10T16:35:27.647Z,18.72
2022-09-10T16:38:28.994Z,18.52
2022-09-10T16:41:31.075Z,18.34
2022-09-10T16:44:32.392Z,18.14
2022-09-10T16:47:33.875Z,18.10
2022-09-10T16:50:35.209Z,18.07
2022-09-10T16:53:37.068Z,17.98
2022-09-10T16:56:41.063Z,17.85
2022-09-10T16:59:42.416Z,17.72
2022-09-10T17:02:43.850Z,17.67
2022-09-10T17:05:45.365Z,17.62
2022-09-10T17:08:47.249Z,17.61
2022-09-10T17:11:48.665Z,17.63
2022-09-10T17:14:50.077Z,17.61
2022-09-10T17:17:51.438Z,17.45
2022-09-10T17:20:52.781Z,17.40
2022-09-10T17:23:55.434Z,17.31
2022-09-10T17:26:56.769Z,17.18
2022-09-10T17:30:01.002Z,17.17
2022-09-10T17:33:02.424Z,17.09
2022-09-10T17:36:04.182Z,17.06
2022-09-10T17:39:05.843Z,17.00
2022-09-10T17:42:07.290Z,16.96
2022-09-10T17:45:09.024Z,16.92
2022-09-10T17:48:10.397Z,16.87
2022-09-10T17:51:13.340Z,16.83
2022-09-10T17:54:14.688Z,16.78
2022-09-10T17:57:16.024Z,16.77
2022-09-10T18:00:17.470Z,16.75
2022-09-10T18:03:18.796Z,16.70
2022-09-10T18:06:20.988Z,16.68
2022-09-10T18:09:22.420Z,16.66
2022-09-10T18:12:23.832Z,16.66
2022-09-10T18:15:25.931Z,16.60
2022-09-10T18:18:27.277Z,16.50
2022-09-10T18:21:31.662Z,16.51
2022-09-10T18:24:33.014Z,16.47
2022-09-10T18:27:34.352Z,16.42
2022-09-10T18:30:35.721Z,16.39
2022-09-10T18:33:39.292Z,16.38
2022-09-10T18:36:41.257Z,16.30
2022-09-10T18:39:42.635Z,16.26
2022-09-10T18:42:46.761Z,16.19
2022-09-10T18:45:48.253Z,16.15
2022-09-10T18:48:50.950Z,16.11
2022-09-10T18:51:54.470Z,16.04
2022-09-10T18:54:55.805Z,16.02
2022-09-10T18:57:57.161Z,15.97
2022-09-10T19:01:10.373Z,15.91
2022-09-10T19:04:13.997Z,15.63
2022-09-10T19:07:15.369Z,15.78
2022-09-10T19:10:16.749Z,15.78
2022-09-10T19:13:18.129Z,15.78
2022-09-10T19:16:20.826Z,15.77
2022-09-10T19:19:28.122Z,15.70
2022-09-10T19:22:29.462Z,15.64
2022-09-10T19:25:30.826Z,15.61
2022-09-10T19:28:33.360Z,15.55
2022-09-10T19:31:35.114Z,15.48
2022-09-10T19:34:36.521Z,15.49
2022-09-10T19:37:37.889Z,15.50
2022-09-10T19:40:39.510Z,15.50
2022-09-10T19:43:41.228Z,15.47
2022-09-10T19:46:42.700Z,15.47
2022-09-10T19:49:44.104Z,15.46
2022-09-10T19:52:45.495Z,15.43
2022-09-10T19:55:46.961Z,15.38
2022-09-10T19:58:50.612Z,15.36
2022-09-10T20:01:52.055Z,15.29
2022-09-10T20:04:53.509Z,15.30
2022-09-10T20:07:54.858Z,15.27
2022-09-10T20:10:56.259Z,15.21
2022-09-10T20:14:02.918Z,15.17
2022-09-10T20:17:04.279Z,15.10
2022-09-10T20:20:05.920Z,15.02
2022-09-10T20:23:07.247Z,14.98
2022-09-10T20:26:14.350Z,14.98
2022-09-10T20:29:17.644Z,14.96
2022-09-10T20:32:19.166Z,14.95
2022-09-10T20:35:20.482Z,14.92
2022-09-10T20:38:21.827Z,14.86
2022-09-10T20:41:24.481Z,14.82
2022-09-10T20:44:25.843Z,14.76
2022-09-10T20:47:27.166Z,14.78
2022-09-10T20:50:28.533Z,14.78
2022-09-10T20:53:35.823Z,14.78
2022-09-10T20:56:37.176Z,14.79
2022-09-10T20:59:38.500Z,14.84
2022-09-10T21:02:39.899Z,14.86
2022-09-10T21:05:48.852Z,14.86
2022-09-10T21:08:50.227Z,14.87
2022-09-10T21:11:51.544Z,14.86
2022-09-10T21:14:52.872Z,14.86
2022-09-10T21:17:54.228Z,14.85
2022-09-10T21:21:05.140Z,14.85
2022-09-10T21:24:10.105Z,14.85
2022-09-10T21:27:11.480Z,14.84
2022-09-10T21:30:12.885Z,14.81
2022-09-10T21:33:14.213Z,14.79
2022-09-10T21:36:18.162Z,14.79
2022-09-10T21:39:19.533Z,14.78
2022-09-10T21:42:20.857Z,14.77
2022-09-10T21:45:26.138Z,14.78
2022-09-10T21:48:27.937Z,14.75
2022-09-10T21:51:29.552Z,14.73
2022-09-10T21:54:30.930Z,14.73
2022-09-10T21:57:32.273Z,14.69
2022-09-10T22:00:33.638Z,14.65
2022-09-10T22:03:34.993Z,14.60
2022-09-10T22:06:36.718Z,14.55
2022-09-10T22:09:38.070Z,14.51
2022-09-10T22:12:39.389Z,14.51
2022-09-10T22:15:42.313Z,14.55
2022-09-10T22:18:43.669Z,14.52
2022-09-10T22:21:45.722Z,14.53
2022-09-10T22:24:47.035Z,14.46
2022-09-10T22:27:48.379Z,14.40
2022-09-10T22:30:49.746Z,14.38
2022-09-10T22:33:56.643Z,14.40
2022-09-10T22:36:57.954Z,14.45
2022-09-10T22:39:59.321Z,14.50
2022-09-10T22:43:00.675Z,14.53
2022-09-10T22:46:02.255Z,14.56
2022-09-10T22:49:04.984Z,14.58
2022-09-10T22:52:06.307Z,14.57
2022-09-10T22:55:08.204Z,14.63
2022-09-10T22:58:09.940Z,14.63
2022-09-10T23:01:14.454Z,14.60
2022-09-10T23:04:15.978Z,14.62
2022-09-10T23:07:17.317Z,14.61
2022-09-10T23:10:18.816Z,14.58
2022-09-10T23:13:20.195Z,14.56
2022-09-10T23:16:33.320Z,14.56
2022-09-10T23:19:34.668Z,14.55
2022-09-10T23:22:36.021Z,14.56
2022-09-10T23:25:37.338Z,14.51
2022-09-10T23:28:39.302Z,14.44
2022-09-10T23:31:40.762Z,14.44
2022-09-10T23:34:42.137Z,14.46
2022-09-10T23:37:43.462Z,14.43
2022-09-10T23:40:44.806Z,14.38
2022-09-10T23:43:46.181Z,14.30
2022-09-10T23:46:47.585Z,14.29
2022-09-10T23:49:48.963Z,14.30
2022-09-10T23:52:50.298Z,14.27
2022-09-10T23:55:52.062Z,14.27
2022-09-10T23:58:53.770Z,14.28
